KMJ weather

Kumamoto Airport
Kumamoto, Kumamoto Prefecture, Japan

Public forecast

Using degrees Celsius for public forecast. Weather courtesy of forecast.io.

Current aviation weather report (METAR) for Kumamoto Airport

Retrieved 2019/10/21 06:00 UTC (1 minute ago):

RJFT 210600Z 05010KT 9999 FEW030 SCT180 24/17 Q1011

Aviation forecast (TAF) for Kumamoto Airport

Retrieved 2019/10/21 06:30 UTC (0 seconds ago):

TAF RJFT 210508Z 2106/2212 04009KT 9999 VA FEW040 BECMG 2203/2206 24005KT BECMG 2209/2212 06008KT